Skip Navigation Links Skip Navigation Links

Current Weather

Barra Do Garcas, Brazil

For information only: do not use for flight planning or navigation.
Latest weather
Observation time Saturday, September 22, 2018 11:00 AM BRT
Local time Saturday, September 22, 2018 12:58 PM BRT
Flight conditions Visual Meteorological Conditions
Winds
Wind direction East (100°)
Wind speed 3 mph
Visibility 6.2 mi.
Sky condition
Ceiling unlimited
Sky clear
Temperature 91°F
Dewpoint 64°F
Altimeter 29.94 in.Hg
Derived measurements
Relative humidity 41%
Heat index 93°F
Density altitude 2659 ft.
Remarks
Ceiling and visibility OK.
METAR SBBW 221400Z 10003KT CAVOK 33/18 Q1014

Settings

Location code

InnerDrive.Weather 4.0.6770.0 Release CLR 4.0.30319.42000
Copyright ©2018 Inner Drive Technology. All rights reserved. Portions Copyright ©1986-2018 David Braverman.

Find weather

Site navigation


Skip Navigation Links

Place info

Page info

PayPal - The safer, easier way to pay online!

Return home.

Copyright ©2018 Inner Drive Technology. Purveyors of fine, hand-crafted computer software. Page printed 2018-09-22T15:58:29 UTC.